Terminal Aerodrome Forecast
Issued by NWS Mt. Holly, NJ

Current Version | Previous Version | Text Only | Print | Product List | Glossary On
Versions: 1 2 3 4 5 6 7 8 9 10 11 12 13 14 15 16 17 18 19 20 21 22 23 24 25
000
FTUS41 KPHI 211121
TAFILG
TAF
KILG 211121Z 2112/2212 24005KT P6SM SCT050 OVC060
      TEMPO 2112/2113 6SM BR
     FM211300 28012G18KT P6SM BKN050
     FM211600 28018G26KT P6SM SCT040
     FM220000 25008KT P6SM SCT100=

USA.gov is the U.S. government's official web portal to all federal, state and local government web resources and services.